sensor_id;sensor_type;location;lat;lon;timestamp;P1;durP1;ratioP1;P2;durP2;ratioP2
80179;SDS011;69505;52.134;5.438;2023-07-29T00:01:35;3.85;;;1.10;;
80179;SDS011;69505;52.134;5.438;2023-07-29T00:04:02;1.80;;;0.90;;
80179;SDS011;69505;52.134;5.438;2023-07-29T00:06:29;1.90;;;0.82;;
80179;SDS011;69505;52.134;5.438;2023-07-29T00:08:55;1.77;;;0.68;;
80179;SDS011;69505;52.134;5.438;2023-07-29T00:11:22;5.18;;;0.93;;
80179;SDS011;69505;52.134;5.438;2023-07-29T00:13:49;2.53;;;0.82;;
80179;SDS011;69505;52.134;5.438;2023-07-29T00:16:17;1.77;;;0.90;;
80179;SDS011;69505;52.134;5.438;2023-07-29T00:18:44;2.40;;;0.93;;
80179;SDS011;69505;52.134;5.438;2023-07-29T00:21:10;2.88;;;0.93;;
80179;SDS011;69505;52.134;5.438;2023-07-29T00:23:37;1.90;;;0.85;;
80179;SDS011;69505;52.134;5.438;2023-07-29T00:26:03;1.63;;;0.80;;
80179;SDS011;69505;52.134;5.438;2023-07-29T00:28:30;3.65;;;1.10;;
80179;SDS011;69505;52.134;5.438;2023-07-29T00:30:57;1.63;;;0.70;;
80179;SDS011;69505;52.134;5.438;2023-07-29T00:33:24;1.20;;;0.70;;
80179;SDS011;69505;52.134;5.438;2023-07-29T00:35:50;1.70;;;0.73;;
80179;SDS011;69505;52.134;5.438;2023-07-29T00:38:17;1.92;;;0.77;;
80179;SDS011;69505;52.134;5.438;2023-07-29T00:40:43;2.53;;;0.75;;
80179;SDS011;69505;52.134;5.438;2023-07-29T00:43:10;2.00;;;0.90;;
80179;SDS011;69505;52.134;5.438;2023-07-29T00:45:37;1.60;;;0.73;;
80179;SDS011;69505;52.134;5.438;2023-07-29T00:48:04;2.10;;;0.90;;
80179;SDS011;69505;52.134;5.438;2023-07-29T00:50:31;3.15;;;0.80;;
80179;SDS011;69505;52.134;5.438;2023-07-29T00:52:58;2.58;;;0.80;;
80179;SDS011;69505;52.134;5.438;2023-07-29T00:55:25;2.08;;;0.82;;
80179;SDS011;69505;52.134;5.438;2023-07-29T00:57:54;3.33;;;1.15;;
80179;SDS011;69505;52.134;5.438;2023-07-29T01:00:21;1.83;;;0.77;;
80179;SDS011;69505;52.134;5.438;2023-07-29T01:02:48;2.55;;;0.80;;
80179;SDS011;69505;52.134;5.438;2023-07-29T01:05:15;2.97;;;0.90;;
80179;SDS011;69505;52.134;5.438;2023-07-29T01:10:40;2.20;;;1.50;;
80179;SDS011;69505;52.134;5.438;2023-07-29T01:13:37;3.35;;;0.98;;
80179;SDS011;69505;52.134;5.438;2023-07-29T01:16:58;2.33;;;0.75;;
80179;SDS011;69505;52.134;5.438;2023-07-29T01:19:06;1.67;;;0.70;;
80179;SDS011;69505;52.134;5.438;2023-07-29T01:21:35;2.55;;;0.88;;
80179;SDS011;69505;52.134;5.438;2023-07-29T01:24:03;2.22;;;0.75;;
80179;SDS011;69505;52.134;5.438;2023-07-29T01:26:30;5.93;;;1.13;;
80179;SDS011;69505;52.134;5.438;2023-07-29T01:28:56;2.47;;;1.17;;
80179;SDS011;69505;52.134;5.438;2023-07-29T01:31:30;3.78;;;0.95;;
80179;SDS011;69505;52.134;5.438;2023-07-29T01:34:13;2.28;;;1.02;;
80179;SDS011;69505;52.134;5.438;2023-07-29T01:36:49;2.25;;;0.82;;
80179;SDS011;69505;52.134;5.438;2023-07-29T01:39:20;3.10;;;1.08;;
80179;SDS011;69505;52.134;5.438;2023-07-29T01:41:49;3.53;;;0.90;;
80179;SDS011;69505;52.134;5.438;2023-07-29T01:44:17;2.55;;;1.05;;
80179;SDS011;69505;52.134;5.438;2023-07-29T01:46:44;3.65;;;1.25;;
80179;SDS011;69505;52.134;5.438;2023-07-29T01:49:11;3.67;;;1.33;;
80179;SDS011;69505;52.134;5.438;2023-07-29T01:51:37;2.88;;;1.25;;
80179;SDS011;69505;52.134;5.438;2023-07-29T01:54:04;3.28;;;1.40;;
80179;SDS011;69505;52.134;5.438;2023-07-29T01:56:30;3.30;;;1.40;;
80179;SDS011;69505;52.134;5.438;2023-07-29T01:58:57;5.18;;;1.40;;
80179;SDS011;69505;52.134;5.438;2023-07-29T02:01:24;3.22;;;1.63;;
80179;SDS011;69505;52.134;5.438;2023-07-29T02:03:50;4.07;;;1.73;;
80179;SDS011;69505;52.134;5.438;2023-07-29T02:06:21;3.20;;;1.42;;
80179;SDS011;69505;52.134;5.438;2023-07-29T02:08:48;2.95;;;1.50;;
80179;SDS011;69505;52.134;5.438;2023-07-29T02:11:15;4.03;;;1.70;;
80179;SDS011;69505;52.134;5.438;2023-07-29T02:13:41;3.90;;;1.60;;
80179;SDS011;69505;52.134;5.438;2023-07-29T02:16:08;3.10;;;1.88;;
80179;SDS011;69505;52.134;5.438;2023-07-29T02:18:34;5.03;;;1.80;;
80179;SDS011;69505;52.134;5.438;2023-07-29T02:21:01;4.18;;;2.00;;
80179;SDS011;69505;52.134;5.438;2023-07-29T02:23:27;3.45;;;1.67;;
80179;SDS011;69505;52.134;5.438;2023-07-29T02:25:54;3.70;;;2.10;;
80179;SDS011;69505;52.134;5.438;2023-07-29T02:28:21;2.60;;;1.42;;
80179;SDS011;69505;52.134;5.438;2023-07-29T02:30:47;5.20;;;1.70;;
80179;SDS011;69505;52.134;5.438;2023-07-29T02:33:46;3.20;;;1.80;;
80179;SDS011;69505;52.134;5.438;2023-07-29T02:36:13;5.07;;;1.90;;
80179;SDS011;69505;52.134;5.438;2023-07-29T02:38:40;4.22;;;1.90;;
80179;SDS011;69505;52.134;5.438;2023-07-29T02:41:08;6.85;;;2.30;;
80179;SDS011;69505;52.134;5.438;2023-07-29T02:43:36;4.22;;;2.45;;
80179;SDS011;69505;52.134;5.438;2023-07-29T02:46:02;6.00;;;2.63;;
80179;SDS011;69505;52.134;5.438;2023-07-29T02:48:29;5.22;;;2.30;;
80179;SDS011;69505;52.134;5.438;2023-07-29T02:50:56;4.50;;;2.63;;
80179;SDS011;69505;52.134;5.438;2023-07-29T02:53:23;5.63;;;2.60;;
80179;SDS011;69505;52.134;5.438;2023-07-29T02:55:49;4.90;;;3.08;;
80179;SDS011;69505;52.134;5.438;2023-07-29T02:58:16;6.80;;;2.78;;
80179;SDS011;69505;52.134;5.438;2023-07-29T03:00:42;3.83;;;2.75;;
80179;SDS011;69505;52.134;5.438;2023-07-29T03:03:09;6.32;;;2.90;;
80179;SDS011;69505;52.134;5.438;2023-07-29T03:05:36;6.80;;;3.22;;
80179;SDS011;69505;52.134;5.438;2023-07-29T03:08:04;6.13;;;3.92;;
80179;SDS011;69505;52.134;5.438;2023-07-29T03:10:31;5.72;;;3.00;;
80179;SDS011;69505;52.134;5.438;2023-07-29T03:12:57;7.07;;;3.65;;
80179;SDS011;69505;52.134;5.438;2023-07-29T03:15:24;5.68;;;2.60;;
80179;SDS011;69505;52.134;5.438;2023-07-29T03:17:53;4.20;;;2.35;;
80179;SDS011;69505;52.134;5.438;2023-07-29T03:20:20;8.00;;;2.83;;
80179;SDS011;69505;52.134;5.438;2023-07-29T03:22:46;7.25;;;2.88;;
80179;SDS011;69505;52.134;5.438;2023-07-29T03:25:13;7.38;;;2.50;;
80179;SDS011;69505;52.134;5.438;2023-07-29T03:27:40;4.50;;;2.38;;
80179;SDS011;69505;52.134;5.438;2023-07-29T03:30:06;6.22;;;2.92;;
80179;SDS011;69505;52.134;5.438;2023-07-29T03:32:33;4.85;;;2.67;;
80179;SDS011;69505;52.134;5.438;2023-07-29T03:35:00;8.57;;;3.35;;
80179;SDS011;69505;52.134;5.438;2023-07-29T03:37:26;4.55;;;2.83;;
80179;SDS011;69505;52.134;5.438;2023-07-29T03:39:53;4.88;;;2.65;;
80179;SDS011;69505;52.134;5.438;2023-07-29T03:42:19;6.97;;;3.45;;
80179;SDS011;69505;52.134;5.438;2023-07-29T03:44:46;4.25;;;2.40;;
80179;SDS011;69505;52.134;5.438;2023-07-29T03:47:13;6.47;;;2.55;;
80179;SDS011;69505;52.134;5.438;2023-07-29T03:49:39;4.65;;;2.50;;
80179;SDS011;69505;52.134;5.438;2023-07-29T03:52:06;6.30;;;3.10;;
80179;SDS011;69505;52.134;5.438;2023-07-29T03:54:33;5.82;;;2.75;;
80179;SDS011;69505;52.134;5.438;2023-07-29T03:56:59;4.63;;;2.58;;
80179;SDS011;69505;52.134;5.438;2023-07-29T03:59:26;8.40;;;2.90;;
80179;SDS011;69505;52.134;5.438;2023-07-29T04:01:52;4.22;;;2.40;;
80179;SDS011;69505;52.134;5.438;2023-07-29T04:04:20;6.10;;;2.67;;
80179;SDS011;69505;52.134;5.438;2023-07-29T04:06:47;7.60;;;2.92;;
80179;SDS011;69505;52.134;5.438;2023-07-29T04:09:13;4.22;;;2.35;;
80179;SDS011;69505;52.134;5.438;2023-07-29T04:11:40;3.90;;;2.30;;
80179;SDS011;69505;52.134;5.438;2023-07-29T04:14:06;4.85;;;2.38;;
80179;SDS011;69505;52.134;5.438;2023-07-29T04:16:33;4.10;;;2.22;;
80179;SDS011;69505;52.134;5.438;2023-07-29T04:19:00;5.80;;;2.28;;
80179;SDS011;69505;52.134;5.438;2023-07-29T04:21:27;4.57;;;2.33;;
80179;SDS011;69505;52.134;5.438;2023-07-29T04:23:53;3.10;;;1.95;;
80179;SDS011;69505;52.134;5.438;2023-07-29T04:26:20;4.57;;;2.00;;
80179;SDS011;69505;52.134;5.438;2023-07-29T04:28:47;3.15;;;1.90;;
80179;SDS011;69505;52.134;5.438;2023-07-29T04:31:13;4.20;;;1.67;;
80179;SDS011;69505;52.134;5.438;2023-07-29T04:33:40;4.22;;;1.77;;
80179;SDS011;69505;52.134;5.438;2023-07-29T04:36:06;4.05;;;1.73;;
80179;SDS011;69505;52.134;5.438;2023-07-29T04:38:33;2.90;;;1.38;;
80179;SDS011;69505;52.134;5.438;2023-07-29T04:41:00;3.00;;;1.40;;
80179;SDS011;69505;52.134;5.438;2023-07-29T04:43:30;3.13;;;1.48;;
80179;SDS011;69505;52.134;5.438;2023-07-29T04:45:58;3.03;;;1.48;;
80179;SDS011;69505;52.134;5.438;2023-07-29T04:48:24;3.20;;;1.70;;
80179;SDS011;69505;52.134;5.438;2023-07-29T04:50:51;4.50;;;1.40;;
80179;SDS011;69505;52.134;5.438;2023-07-29T04:53:18;4.45;;;1.55;;
80179;SDS011;69505;52.134;5.438;2023-07-29T04:55:45;3.35;;;1.63;;
80179;SDS011;69505;52.134;5.438;2023-07-29T04:58:11;3.45;;;1.30;;
80179;SDS011;69505;52.134;5.438;2023-07-29T05:00:38;5.82;;;1.75;;
80179;SDS011;69505;52.134;5.438;2023-07-29T05:03:05;3.85;;;1.35;;
80179;SDS011;69505;52.134;5.438;2023-07-29T05:05:32;3.50;;;1.63;;
80179;SDS011;69505;52.134;5.438;2023-07-29T05:07:59;3.58;;;1.55;;
80179;SDS011;69505;52.134;5.438;2023-07-29T05:10:25;2.95;;;1.52;;
80179;SDS011;69505;52.134;5.438;2023-07-29T05:12:52;3.00;;;1.33;;
80179;SDS011;69505;52.134;5.438;2023-07-29T05:15:18;3.90;;;1.50;;
80179;SDS011;69505;52.134;5.438;2023-07-29T05:17:45;2.80;;;1.40;;
80179;SDS011;69505;52.134;5.438;2023-07-29T05:20:11;3.67;;;1.42;;
80179;SDS011;69505;52.134;5.438;2023-07-29T05:22:38;3.25;;;1.88;;
80179;SDS011;69505;52.134;5.438;2023-07-29T05:25:05;3.67;;;1.50;;
80179;SDS011;69505;52.134;5.438;2023-07-29T05:27:32;3.60;;;1.63;;
80179;SDS011;69505;52.134;5.438;2023-07-29T05:29:58;4.32;;;1.48;;
80179;SDS011;69505;52.134;5.438;2023-07-29T05:32:25;3.88;;;1.63;;
80179;SDS011;69505;52.134;5.438;2023-07-29T05:34:51;4.15;;;1.73;;
80179;SDS011;69505;52.134;5.438;2023-07-29T05:37:18;2.97;;;1.90;;
80179;SDS011;69505;52.134;5.438;2023-07-29T05:39:44;4.05;;;2.60;;
80179;SDS011;69505;52.134;5.438;2023-07-29T05:42:11;5.07;;;2.30;;
80179;SDS011;69505;52.134;5.438;2023-07-29T05:44:38;4.32;;;2.03;;
80179;SDS011;69505;52.134;5.438;2023-07-29T05:47:04;4.93;;;1.63;;
80179;SDS011;69505;52.134;5.438;2023-07-29T05:49:31;4.13;;;1.83;;
80179;SDS011;69505;52.134;5.438;2023-07-29T05:51:58;4.00;;;1.85;;
80179;SDS011;69505;52.134;5.438;2023-07-29T05:54:25;4.20;;;1.75;;
80179;SDS011;69505;52.134;5.438;2023-07-29T05:56:51;4.63;;;2.15;;
80179;SDS011;69505;52.134;5.438;2023-07-29T05:59:18;10.13;;;2.22;;
80179;SDS011;69505;52.134;5.438;2023-07-29T06:01:44;5.72;;;2.10;;
80179;SDS011;69505;52.134;5.438;2023-07-29T06:04:11;5.00;;;1.75;;
80179;SDS011;69505;52.134;5.438;2023-07-29T06:06:37;4.38;;;1.95;;
80179;SDS011;69505;52.134;5.438;2023-07-29T06:09:04;5.20;;;2.50;;
80179;SDS011;69505;52.134;5.438;2023-07-29T06:11:31;6.38;;;2.63;;
80179;SDS011;69505;52.134;5.438;2023-07-29T06:13:57;5.05;;;2.80;;
80179;SDS011;69505;52.134;5.438;2023-07-29T06:16:24;4.60;;;2.30;;
80179;SDS011;69505;52.134;5.438;2023-07-29T06:18:51;5.63;;;2.30;;
80179;SDS011;69505;52.134;5.438;2023-07-29T06:21:19;4.70;;;2.40;;
80179;SDS011;69505;52.134;5.438;2023-07-29T06:23:46;5.65;;;2.83;;
80179;SDS011;69505;52.134;5.438;2023-07-29T06:26:12;5.68;;;2.60;;
80179;SDS011;69505;52.134;5.438;2023-07-29T06:28:39;6.32;;;2.33;;
80179;SDS011;69505;52.134;5.438;2023-07-29T06:31:05;5.03;;;1.90;;
80179;SDS011;69505;52.134;5.438;2023-07-29T06:33:32;5.20;;;2.53;;
80179;SDS011;69505;52.134;5.438;2023-07-29T06:35:59;4.95;;;2.28;;
80179;SDS011;69505;52.134;5.438;2023-07-29T06:38:25;7.00;;;2.80;;
80179;SDS011;69505;52.134;5.438;2023-07-29T06:40:52;5.25;;;2.50;;
80179;SDS011;69505;52.134;5.438;2023-07-29T06:43:18;5.05;;;2.10;;
80179;SDS011;69505;52.134;5.438;2023-07-29T06:45:45;4.63;;;2.03;;
80179;SDS011;69505;52.134;5.438;2023-07-29T06:48:11;10.15;;;2.58;;
80179;SDS011;69505;52.134;5.438;2023-07-29T06:50:38;5.20;;;2.47;;
80179;SDS011;69505;52.134;5.438;2023-07-29T06:53:05;5.38;;;3.05;;
80179;SDS011;69505;52.134;5.438;2023-07-29T06:55:32;8.70;;;2.58;;
80179;SDS011;69505;52.134;5.438;2023-07-29T06:57:58;4.85;;;2.67;;
80179;SDS011;69505;52.134;5.438;2023-07-29T07:00:25;4.07;;;2.58;;
80179;SDS011;69505;52.134;5.438;2023-07-29T07:02:52;4.82;;;2.47;;
80179;SDS011;69505;52.134;5.438;2023-07-29T07:05:18;4.93;;;2.35;;
80179;SDS011;69505;52.134;5.438;2023-07-29T07:07:45;6.32;;;3.40;;
80179;SDS011;69505;52.134;5.438;2023-07-29T07:10:11;5.88;;;2.40;;
80179;SDS011;69505;52.134;5.438;2023-07-29T07:12:38;7.68;;;2.83;;
80179;SDS011;69505;52.134;5.438;2023-07-29T07:15:05;5.95;;;2.80;;
80179;SDS011;69505;52.134;5.438;2023-07-29T07:17:32;8.68;;;2.72;;
80179;SDS011;69505;52.134;5.438;2023-07-29T07:19:58;4.18;;;2.63;;
80179;SDS011;69505;52.134;5.438;2023-07-29T07:22:25;6.97;;;2.75;;
80179;SDS011;69505;52.134;5.438;2023-07-29T07:24:51;5.65;;;2.80;;
80179;SDS011;69505;52.134;5.438;2023-07-29T07:27:18;8.30;;;2.60;;
80179;SDS011;69505;52.134;5.438;2023-07-29T07:29:44;6.35;;;2.63;;
80179;SDS011;69505;52.134;5.438;2023-07-29T07:32:11;5.43;;;2.60;;
80179;SDS011;69505;52.134;5.438;2023-07-29T07:34:37;6.05;;;3.13;;
80179;SDS011;69505;52.134;5.438;2023-07-29T07:37:04;6.40;;;3.20;;
80179;SDS011;69505;52.134;5.438;2023-07-29T07:39:31;5.88;;;3.13;;
80179;SDS011;69505;52.134;5.438;2023-07-29T07:41:58;7.32;;;3.03;;
80179;SDS011;69505;52.134;5.438;2023-07-29T07:44:24;4.20;;;2.55;;
80179;SDS011;69505;52.134;5.438;2023-07-29T07:46:52;4.13;;;2.40;;
80179;SDS011;69505;52.134;5.438;2023-07-29T07:49:19;5.95;;;2.42;;
80179;SDS011;69505;52.134;5.438;2023-07-29T07:51:46;8.40;;;2.30;;
80179;SDS011;69505;52.134;5.438;2023-07-29T07:54:13;6.50;;;3.03;;
80179;SDS011;69505;52.134;5.438;2023-07-29T07:56:39;5.13;;;2.83;;
80179;SDS011;69505;52.134;5.438;2023-07-29T07:59:06;5.95;;;3.00;;
80179;SDS011;69505;52.134;5.438;2023-07-29T08:01:36;5.97;;;2.90;;
80179;SDS011;69505;52.134;5.438;2023-07-29T08:04:05;7.47;;;2.88;;
80179;SDS011;69505;52.134;5.438;2023-07-29T08:06:32;4.28;;;2.92;;
80179;SDS011;69505;52.134;5.438;2023-07-29T08:08:59;7.38;;;2.90;;
80179;SDS011;69505;52.134;5.438;2023-07-29T08:11:26;6.30;;;2.55;;
80179;SDS011;69505;52.134;5.438;2023-07-29T08:13:52;3.15;;;2.28;;
80179;SDS011;69505;52.134;5.438;2023-07-29T08:16:19;2.92;;;1.95;;
80179;SDS011;69505;52.134;5.438;2023-07-29T08:18:45;4.88;;;2.28;;
80179;SDS011;69505;52.134;5.438;2023-07-29T08:21:13;4.55;;;1.85;;
80179;SDS011;69505;52.134;5.438;2023-07-29T08:23:40;4.50;;;2.10;;
80179;SDS011;69505;52.134;5.438;2023-07-29T08:26:06;4.05;;;2.10;;
80179;SDS011;69505;52.134;5.438;2023-07-29T08:28:35;3.80;;;1.55;;
80179;SDS011;69505;52.134;5.438;2023-07-29T08:31:03;4.50;;;1.90;;
80179;SDS011;69505;52.134;5.438;2023-07-29T08:33:30;4.22;;;1.48;;
80179;SDS011;69505;52.134;5.438;2023-07-29T08:35:57;5.15;;;1.73;;
80179;SDS011;69505;52.134;5.438;2023-07-29T08:38:24;3.55;;;1.50;;
80179;SDS011;69505;52.134;5.438;2023-07-29T08:43:36;5.72;;;1.67;;
80179;SDS011;69505;52.134;5.438;2023-07-29T08:46:05;3.10;;;1.90;;
80179;SDS011;69505;52.134;5.438;2023-07-29T08:48:40;3.30;;;1.50;;
80179;SDS011;69505;52.134;5.438;2023-07-29T08:53:35;3.40;;;1.40;;
80179;SDS011;69505;52.134;5.438;2023-07-29T08:56:02;4.43;;;1.75;;
80179;SDS011;69505;52.134;5.438;2023-07-29T08:58:29;5.30;;;1.70;;
80179;SDS011;69505;52.134;5.438;2023-07-29T09:00:56;4.60;;;1.33;;
80179;SDS011;69505;52.134;5.438;2023-07-29T09:03:23;3.03;;;1.50;;
80179;SDS011;69505;52.134;5.438;2023-07-29T09:05:49;3.45;;;1.42;;
80179;SDS011;69505;52.134;5.438;2023-07-29T09:08:17;3.13;;;1.23;;
80179;SDS011;69505;52.134;5.438;2023-07-29T09:10:43;4.75;;;1.30;;
80179;SDS011;69505;52.134;5.438;2023-07-29T09:13:10;3.72;;;1.77;;
80179;SDS011;69505;52.134;5.438;2023-07-29T09:15:36;3.40;;;1.45;;
80179;SDS011;69505;52.134;5.438;2023-07-29T09:18:37;4.70;;;1.67;;
80179;SDS011;69505;52.134;5.438;2023-07-29T09:23:25;4.93;;;1.50;;
80179;SDS011;69505;52.134;5.438;2023-07-29T09:25:52;3.45;;;1.60;;
80179;SDS011;69505;52.134;5.438;2023-07-29T09:28:27;3.10;;;2.28;;
80179;SDS011;69505;52.134;5.438;2023-07-29T09:30:59;4.43;;;1.80;;
80179;SDS011;69505;52.134;5.438;2023-07-29T09:33:26;3.90;;;1.85;;
80179;SDS011;69505;52.134;5.438;2023-07-29T09:35:53;4.10;;;1.50;;
80179;SDS011;69505;52.134;5.438;2023-07-29T09:38:25;4.43;;;1.77;;
80179;SDS011;69505;52.134;5.438;2023-07-29T09:40:56;3.55;;;1.80;;
80179;SDS011;69505;52.134;5.438;2023-07-29T09:43:31;4.15;;;1.63;;
80179;SDS011;69505;52.134;5.438;2023-07-29T09:46:00;3.95;;;1.85;;
80179;SDS011;69505;52.134;5.438;2023-07-29T09:48:28;4.80;;;1.75;;
80179;SDS011;69505;52.134;5.438;2023-07-29T09:50:58;3.10;;;2.40;;
80179;SDS011;69505;52.134;5.438;2023-07-29T09:53:25;3.83;;;1.70;;
80179;SDS011;69505;52.134;5.438;2023-07-29T09:55:52;4.20;;;1.85;;
80179;SDS011;69505;52.134;5.438;2023-07-29T09:58:26;3.50;;;1.98;;
80179;SDS011;69505;52.134;5.438;2023-07-29T10:00:53;4.93;;;1.92;;
80179;SDS011;69505;52.134;5.438;2023-07-29T10:03:20;3.65;;;2.00;;
80179;SDS011;69505;52.134;5.438;2023-07-29T10:05:47;4.60;;;2.33;;
80179;SDS011;69505;52.134;5.438;2023-07-29T10:08:14;6.75;;;2.40;;
80179;SDS011;69505;52.134;5.438;2023-07-29T10:10:41;4.78;;;2.33;;
80179;SDS011;69505;52.134;5.438;2023-07-29T10:13:09;5.47;;;2.65;;
80179;SDS011;69505;52.134;5.438;2023-07-29T10:15:35;5.53;;;2.60;;
80179;SDS011;69505;52.134;5.438;2023-07-29T10:18:02;6.45;;;3.03;;
80179;SDS011;69505;52.134;5.438;2023-07-29T10:20:32;4.82;;;2.53;;
80179;SDS011;69505;52.134;5.438;2023-07-29T10:23:00;4.65;;;3.05;;
80179;SDS011;69505;52.134;5.438;2023-07-29T10:25:40;5.28;;;2.72;;
80179;SDS011;69505;52.134;5.438;2023-07-29T10:28:12;4.35;;;2.88;;
80179;SDS011;69505;52.134;5.438;2023-07-29T10:30:42;4.07;;;2.72;;
80179;SDS011;69505;52.134;5.438;2023-07-29T10:33:08;7.45;;;3.38;;
80179;SDS011;69505;52.134;5.438;2023-07-29T10:35:36;4.80;;;3.13;;
80179;SDS011;69505;52.134;5.438;2023-07-29T10:38:03;6.03;;;3.42;;
80179;SDS011;69505;52.134;5.438;2023-07-29T10:40:48;6.90;;;3.80;;
80179;SDS011;69505;52.134;5.438;2023-07-29T10:43:18;4.50;;;3.30;;
80179;SDS011;69505;52.134;5.438;2023-07-29T10:45:51;5.05;;;3.28;;
80179;SDS011;69505;52.134;5.438;2023-07-29T10:54:04;5.00;;;3.38;;
80179;SDS011;69505;52.134;5.438;2023-07-29T10:56:41;4.78;;;3.08;;
80179;SDS011;69505;52.134;5.438;2023-07-29T11:01:39;8.82;;;3.25;;
80179;SDS011;69505;52.134;5.438;2023-07-29T11:12:32;2.67;;;1.50;;
80179;SDS011;69505;52.134;5.438;2023-07-29T11:17:35;3.17;;;1.50;;
80179;SDS011;69505;52.134;5.438;2023-07-29T11:20:10;3.13;;;1.50;;
80179;SDS011;69505;52.134;5.438;2023-07-29T11:22:38;1.90;;;0.90;;
80179;SDS011;69505;52.134;5.438;2023-07-29T11:25:06;3.00;;;1.23;;
80179;SDS011;69505;52.134;5.438;2023-07-29T11:27:34;1.98;;;0.68;;
80179;SDS011;69505;52.134;5.438;2023-07-29T11:30:01;2.13;;;0.82;;
80179;SDS011;69505;52.134;5.438;2023-07-29T11:32:31;1.40;;;0.80;;
80179;SDS011;69505;52.134;5.438;2023-07-29T11:35:03;2.75;;;1.00;;
80179;SDS011;69505;52.134;5.438;2023-07-29T11:37:30;2.13;;;0.93;;
80179;SDS011;69505;52.134;5.438;2023-07-29T11:39:58;2.10;;;0.75;;
80179;SDS011;69505;52.134;5.438;2023-07-29T11:42:25;2.67;;;0.80;;
80179;SDS011;69505;52.134;5.438;2023-07-29T11:44:52;3.00;;;0.85;;
80179;SDS011;69505;52.134;5.438;2023-07-29T11:47:19;3.00;;;0.90;;
80179;SDS011;69505;52.134;5.438;2023-07-29T11:49:45;4.20;;;0.80;;
80179;SDS011;69505;52.134;5.438;2023-07-29T11:52:12;2.28;;;0.82;;
80179;SDS011;69505;52.134;5.438;2023-07-29T11:54:39;1.90;;;0.75;;
80179;SDS011;69505;52.134;5.438;2023-07-29T11:57:06;2.63;;;1.10;;
80179;SDS011;69505;52.134;5.438;2023-07-29T11:59:35;3.42;;;0.95;;
80179;SDS011;69505;52.134;5.438;2023-07-29T12:02:13;2.35;;;0.82;;
80179;SDS011;69505;52.134;5.438;2023-07-29T12:04:42;2.42;;;1.00;;
80179;SDS011;69505;52.134;5.438;2023-07-29T12:07:10;2.65;;;0.93;;
80179;SDS011;69505;52.134;5.438;2023-07-29T12:12:05;1.88;;;0.80;;
80179;SDS011;69505;52.134;5.438;2023-07-29T12:14:32;2.53;;;0.80;;
80179;SDS011;69505;52.134;5.438;2023-07-29T12:17:00;2.25;;;1.48;;
80179;SDS011;69505;52.134;5.438;2023-07-29T12:19:36;3.08;;;1.10;;
80179;SDS011;69505;52.134;5.438;2023-07-29T12:22:07;3.35;;;1.00;;
80179;SDS011;69505;52.134;5.438;2023-07-29T12:24:36;2.45;;;1.05;;
80179;SDS011;69505;52.134;5.438;2023-07-29T12:27:04;3.35;;;1.60;;
80179;SDS011;69505;52.134;5.438;2023-07-29T12:29:31;2.17;;;1.20;;
80179;SDS011;69505;52.134;5.438;2023-07-29T12:31:59;2.00;;;1.30;;
80179;SDS011;69505;52.134;5.438;2023-07-29T12:34:27;2.92;;;1.50;;
80179;SDS011;69505;52.134;5.438;2023-07-29T12:36:55;4.80;;;1.35;;
80179;SDS011;69505;52.134;5.438;2023-07-29T12:41:54;2.60;;;1.20;;
80179;SDS011;69505;52.134;5.438;2023-07-29T12:44:24;2.72;;;0.93;;
80179;SDS011;69505;52.134;5.438;2023-07-29T12:46:51;2.40;;;1.13;;
80179;SDS011;69505;52.134;5.438;2023-07-29T12:49:18;4.00;;;1.30;;
80179;SDS011;69505;52.134;5.438;2023-07-29T12:51:45;1.65;;;0.95;;
80179;SDS011;69505;52.134;5.438;2023-07-29T12:54:11;2.03;;;1.20;;
80179;SDS011;69505;52.134;5.438;2023-07-29T12:56:38;2.10;;;1.10;;
80179;SDS011;69505;52.134;5.438;2023-07-29T12:59:05;1.98;;;0.90;;
80179;SDS011;69505;52.134;5.438;2023-07-29T13:01:32;2.45;;;1.27;;
80179;SDS011;69505;52.134;5.438;2023-07-29T13:03:58;4.25;;;1.20;;
80179;SDS011;69505;52.134;5.438;2023-07-29T13:06:25;3.13;;;0.90;;
80179;SDS011;69505;52.134;5.438;2023-07-29T13:08:51;1.80;;;1.10;;
80179;SDS011;69505;52.134;5.438;2023-07-29T13:11:18;2.00;;;1.00;;
80179;SDS011;69505;52.134;5.438;2023-07-29T13:13:45;2.25;;;0.80;;
80179;SDS011;69505;52.134;5.438;2023-07-29T13:16:12;2.42;;;1.00;;
80179;SDS011;69505;52.134;5.438;2023-07-29T13:18:39;1.67;;;0.73;;
80179;SDS011;69505;52.134;5.438;2023-07-29T13:21:06;2.20;;;0.90;;
80179;SDS011;69505;52.134;5.438;2023-07-29T13:23:33;1.23;;;0.70;;
80179;SDS011;69505;52.134;5.438;2023-07-29T13:25:59;4.03;;;0.88;;
80179;SDS011;69505;52.134;5.438;2023-07-29T13:28:26;1.80;;;0.70;;
80179;SDS011;69505;52.134;5.438;2023-07-29T13:30:53;3.00;;;0.70;;
80179;SDS011;69505;52.134;5.438;2023-07-29T13:33:19;2.03;;;0.80;;
80179;SDS011;69505;52.134;5.438;2023-07-29T13:35:46;1.48;;;1.00;;
80179;SDS011;69505;52.134;5.438;2023-07-29T13:38:12;1.77;;;0.70;;
80179;SDS011;69505;52.134;5.438;2023-07-29T13:40:39;2.97;;;0.70;;
80179;SDS011;69505;52.134;5.438;2023-07-29T13:43:06;1.15;;;0.50;;
80179;SDS011;69505;52.134;5.438;2023-07-29T13:45:33;2.13;;;0.90;;
80179;SDS011;69505;52.134;5.438;2023-07-29T13:48:00;1.85;;;0.70;;
80179;SDS011;69505;52.134;5.438;2023-07-29T13:50:27;1.88;;;1.00;;
80179;SDS011;69505;52.134;5.438;2023-07-29T13:52:53;1.40;;;0.70;;
80179;SDS011;69505;52.134;5.438;2023-07-29T13:55:20;3.47;;;0.80;;
80179;SDS011;69505;52.134;5.438;2023-07-29T13:57:47;1.95;;;0.98;;
80179;SDS011;69505;52.134;5.438;2023-07-29T14:00:19;2.05;;;0.90;;
80179;SDS011;69505;52.134;5.438;2023-07-29T14:02:46;2.25;;;0.80;;
80179;SDS011;69505;52.134;5.438;2023-07-29T14:05:13;1.73;;;1.00;;
80179;SDS011;69505;52.134;5.438;2023-07-29T14:07:40;2.10;;;0.98;;
80179;SDS011;69505;52.134;5.438;2023-07-29T14:10:07;1.60;;;0.80;;
80179;SDS011;69505;52.134;5.438;2023-07-29T14:12:34;1.98;;;0.63;;
80179;SDS011;69505;52.134;5.438;2023-07-29T14:15:01;6.32;;;0.75;;
80179;SDS011;69505;52.134;5.438;2023-07-29T14:17:27;1.70;;;0.80;;
80179;SDS011;69505;52.134;5.438;2023-07-29T14:19:54;2.20;;;0.85;;
80179;SDS011;69505;52.134;5.438;2023-07-29T14:22:20;3.90;;;0.98;;
80179;SDS011;69505;52.134;5.438;2023-07-29T14:24:47;1.75;;;0.70;;
80179;SDS011;69505;52.134;5.438;2023-07-29T14:27:14;2.33;;;0.77;;
80179;SDS011;69505;52.134;5.438;2023-07-29T14:29:42;1.48;;;0.68;;
80179;SDS011;69505;52.134;5.438;2023-07-29T14:32:09;2.53;;;0.82;;
80179;SDS011;69505;52.134;5.438;2023-07-29T14:34:35;1.70;;;0.90;;
80179;SDS011;69505;52.134;5.438;2023-07-29T14:37:02;2.63;;;0.80;;
80179;SDS011;69505;52.134;5.438;2023-07-29T14:39:29;1.80;;;0.70;;
80179;SDS011;69505;52.134;5.438;2023-07-29T14:41:55;2.25;;;0.80;;
80179;SDS011;69505;52.134;5.438;2023-07-29T14:44:22;1.90;;;0.70;;
80179;SDS011;69505;52.134;5.438;2023-07-29T14:46:48;1.60;;;0.75;;
80179;SDS011;69505;52.134;5.438;2023-07-29T14:49:15;2.97;;;0.60;;
80179;SDS011;69505;52.134;5.438;2023-07-29T14:51:42;1.60;;;0.50;;
80179;SDS011;69505;52.134;5.438;2023-07-29T14:54:08;2.88;;;0.68;;
80179;SDS011;69505;52.134;5.438;2023-07-29T14:56:35;1.88;;;0.60;;
80179;SDS011;69505;52.134;5.438;2023-07-29T14:59:01;1.40;;;0.63;;
80179;SDS011;69505;52.134;5.438;2023-07-29T15:01:28;1.25;;;0.63;;
80179;SDS011;69505;52.134;5.438;2023-07-29T15:03:55;2.97;;;0.60;;
80179;SDS011;69505;52.134;5.438;2023-07-29T15:06:22;1.58;;;0.68;;
80179;SDS011;69505;52.134;5.438;2023-07-29T15:08:48;3.90;;;0.60;;
80179;SDS011;69505;52.134;5.438;2023-07-29T15:11:15;4.00;;;1.15;;
80179;SDS011;69505;52.134;5.438;2023-07-29T15:13:41;1.20;;;0.50;;
80179;SDS011;69505;52.134;5.438;2023-07-29T15:16:08;1.35;;;0.60;;
80179;SDS011;69505;52.134;5.438;2023-07-29T15:18:34;1.73;;;0.55;;
80179;SDS011;69505;52.134;5.438;2023-07-29T15:21:01;1.63;;;0.50;;
80179;SDS011;69505;52.134;5.438;2023-07-29T15:23:28;1.73;;;0.50;;
80179;SDS011;69505;52.134;5.438;2023-07-29T15:25:55;3.50;;;0.77;;